createdAt,value
2023-04-28T00:00:16.806Z,1009.06
2023-04-28T00:01:16.807Z,1009.05
2023-04-28T00:02:16.835Z,1009.05
2023-04-28T00:03:16.992Z,1009.04
2023-04-28T00:04:17.533Z,1008.99
2023-04-28T00:05:16.896Z,1008.96
2023-04-28T00:06:16.776Z,1008.98
2023-04-28T00:07:16.756Z,1008.95
2023-04-28T00:08:16.770Z,1008.97
2023-04-28T00:09:16.757Z,1008.97
2023-04-28T00:10:16.792Z,1008.92
2023-04-28T00:11:16.785Z,1008.93
2023-04-28T00:12:16.753Z,1008.90
2023-04-28T00:13:16.756Z,1008.89
2023-04-28T00:14:17.035Z,1008.87
2023-04-28T00:15:16.760Z,1008.88
2023-04-28T00:16:16.787Z,1008.92
2023-04-28T00:17:16.807Z,1008.94
2023-04-28T00:18:16.849Z,1008.91
2023-04-28T00:19:16.713Z,1008.91
2023-04-28T00:20:16.723Z,1008.94
2023-04-28T00:21:16.745Z,1008.94
2023-04-28T00:22:16.720Z,1008.93
2023-04-28T00:23:16.721Z,1008.91
2023-04-28T00:24:16.882Z,1008.90
2023-04-28T00:25:16.744Z,1008.87
2023-04-28T00:26:16.702Z,1008.86
2023-04-28T00:27:16.738Z,1008.86
2023-04-28T00:28:30.526Z,1008.80
2023-04-28T00:29:16.699Z,1008.75
2023-04-28T00:30:16.682Z,1008.72
2023-04-28T00:31:16.816Z,1008.63
2023-04-28T00:32:16.694Z,1008.60
2023-04-28T00:33:16.712Z,1008.59
2023-04-28T00:34:17.147Z,1008.53
2023-04-28T00:35:16.674Z,1008.52
2023-04-28T00:36:16.693Z,1008.52
2023-04-28T00:37:16.690Z,1008.46
2023-04-28T00:38:16.666Z,1008.46
2023-04-28T00:39:16.646Z,1008.50
2023-04-28T00:40:16.667Z,1008.46
2023-04-28T00:41:16.703Z,1008.47
2023-04-28T00:42:16.637Z,1008.48
2023-04-28T00:43:16.654Z,1008.46
2023-04-28T00:44:16.932Z,1008.44
2023-04-28T00:45:16.625Z,1008.42
2023-04-28T00:46:16.687Z,1008.43
2023-04-28T00:47:16.634Z,1008.41
2023-04-28T00:48:16.624Z,1008.36
2023-04-28T00:49:16.613Z,1008.38
2023-04-28T00:50:16.616Z,1008.36
2023-04-28T00:51:16.625Z,1008.38
2023-04-28T00:52:16.624Z,1008.43
2023-04-28T00:53:16.629Z,1008.43
2023-04-28T00:54:16.841Z,1008.42
2023-04-28T00:55:16.604Z,1008.38
2023-04-28T00:56:16.598Z,1008.36
2023-04-28T00:57:16.586Z,1008.38
2023-04-28T00:58:16.586Z,1008.35
2023-04-28T00:59:16.610Z,1008.38
2023-04-28T01:00:16.597Z,1008.34
2023-04-28T01:01:16.592Z,1008.37
2023-04-28T01:02:16.709Z,1008.31
2023-04-28T01:03:16.716Z,1008.36
2023-04-28T01:04:16.889Z,1008.35
2023-04-28T01:05:16.560Z,1008.36
2023-04-28T01:06:16.569Z,1008.38
2023-04-28T01:07:16.556Z,1008.37
2023-04-28T01:08:16.558Z,1008.39
2023-04-28T01:09:16.559Z,1008.35
2023-04-28T01:10:16.564Z,1008.38
2023-04-28T01:11:16.554Z,1008.37
2023-04-28T01:12:16.552Z,1008.39
2023-04-28T01:13:16.528Z,1008.37
2023-04-28T01:14:16.892Z,1008.38
2023-04-28T01:15:16.519Z,1008.35
2023-04-28T01:16:16.547Z,1008.34
2023-04-28T01:17:16.528Z,1008.34
2023-04-28T01:18:16.529Z,1008.31
2023-04-28T01:19:16.518Z,1008.29
2023-04-28T01:20:16.543Z,1008.28
2023-04-28T01:21:16.511Z,1008.29
2023-04-28T01:22:16.569Z,1008.33
2023-04-28T01:23:16.509Z,1008.32
2023-04-28T01:24:16.757Z,1008.30
2023-04-28T01:25:16.538Z,1008.30
2023-04-28T01:26:16.481Z,1008.35
2023-04-28T01:27:16.474Z,1008.35
2023-04-28T01:28:16.496Z,1008.30
2023-04-28T01:29:16.488Z,1008.30
2023-04-28T01:30:16.476Z,1008.29
2023-04-28T01:31:16.480Z,1008.26
2023-04-28T01:32:16.489Z,1008.24
2023-04-28T01:33:16.462Z,1008.25
2023-04-28T01:34:16.799Z,1008.22
2023-04-28T01:35:16.473Z,1008.25
2023-04-28T01:36:16.456Z,1008.31
2023-04-28T01:37:16.462Z,1008.33
2023-04-28T01:38:16.485Z,1008.30
2023-04-28T01:39:16.461Z,1008.32
2023-04-28T01:40:16.483Z,1008.28
2023-04-28T01:41:16.471Z,1008.27
2023-04-28T01:42:16.428Z,1008.22
2023-04-28T01:43:16.426Z,1008.23
2023-04-28T01:44:16.542Z,1008.22
2023-04-28T01:45:16.408Z,1008.21
2023-04-28T01:46:16.459Z,1008.21
2023-04-28T01:47:16.424Z,1008.17
2023-04-28T01:48:16.411Z,1008.17
2023-04-28T01:49:16.416Z,1008.16
2023-04-28T01:50:16.428Z,1008.18
2023-04-28T01:51:16.423Z,1008.19
2023-04-28T01:52:16.424Z,1008.18
2023-04-28T01:53:16.402Z,1008.15
2023-04-28T01:54:16.666Z,1008.23
2023-04-28T01:55:16.397Z,1008.16
2023-04-28T01:56:16.403Z,1008.23
2023-04-28T01:57:17.656Z,1008.19
2023-04-28T01:58:16.378Z,1008.21
2023-04-28T01:59:16.380Z,1008.22
2023-04-28T02:00:16.373Z,1008.27
2023-04-28T02:01:16.391Z,1008.28
2023-04-28T02:02:16.424Z,1008.27
2023-04-28T02:03:16.434Z,1008.31
2023-04-28T02:04:16.719Z,1008.32
2023-04-28T02:05:16.361Z,1008.31
2023-04-28T02:06:16.366Z,1008.25
2023-04-28T02:07:16.352Z,1008.21
2023-04-28T02:08:16.360Z,1008.20
2023-04-28T02:09:16.330Z,1008.16
2023-04-28T02:10:16.354Z,1008.20
2023-04-28T02:11:16.374Z,1008.23
2023-04-28T02:12:16.337Z,1008.26
2023-04-28T02:13:16.346Z,1008.26
2023-04-28T02:14:16.822Z,1008.29
2023-04-28T02:15:16.338Z,1008.28
2023-04-28T02:16:16.340Z,1008.22
2023-04-28T02:17:16.317Z,1008.19
2023-04-28T02:18:16.295Z,1008.16
2023-04-28T02:19:16.295Z,1008.17
2023-04-28T02:20:16.293Z,1008.18
2023-04-28T02:21:16.305Z,1008.19
2023-04-28T02:22:16.310Z,1008.22
2023-04-28T02:23:16.308Z,1008.27
2023-04-28T02:24:16.640Z,1008.26
2023-04-28T02:25:16.300Z,1008.26
2023-04-28T02:26:16.264Z,1008.26
2023-04-28T02:27:16.284Z,1008.21
2023-04-28T02:28:16.258Z,1008.14
2023-04-28T02:29:16.303Z,1008.15
2023-04-28T02:30:16.282Z,1008.15
2023-04-28T02:31:16.407Z,1008.11
2023-04-28T02:32:16.267Z,1008.14
2023-04-28T02:33:16.259Z,1008.14
2023-04-28T02:34:16.636Z,1008.09
2023-04-28T02:35:16.254Z,1008.11
2023-04-28T02:36:16.247Z,1008.07
2023-04-28T02:37:16.256Z,1008.09
2023-04-28T02:38:16.277Z,1008.08
2023-04-28T02:39:16.241Z,1008.06
2023-04-28T02:40:16.235Z,1008.07
2023-04-28T02:41:16.229Z,1008.06
2023-04-28T02:42:16.229Z,1008.08
2023-04-28T02:43:16.246Z,1008.01
2023-04-28T02:44:16.570Z,1008.04
2023-04-28T02:45:16.434Z,1008.06
2023-04-28T02:46:16.231Z,1008.06
2023-04-28T02:47:16.232Z,1008.06
2023-04-28T02:48:16.217Z,1008.07
2023-04-28T02:49:16.243Z,1008.03
2023-04-28T02:50:16.297Z,1008.01
2023-04-28T02:51:16.289Z,1008.04
2023-04-28T02:52:16.298Z,1007.97
2023-04-28T02:53:16.306Z,1007.97
2023-04-28T02:54:16.560Z,1007.98
2023-04-28T02:55:16.189Z,1008.01
2023-04-28T02:56:16.174Z,1007.99
2023-04-28T02:57:16.170Z,1008.01
2023-04-28T02:58:16.193Z,1007.98
2023-04-28T02:59:16.167Z,1008.01
2023-04-28T03:00:16.158Z,1007.95
2023-04-28T03:01:16.237Z,1007.97
2023-04-28T03:02:16.176Z,1007.96
2023-04-28T03:03:16.434Z,1007.97
2023-04-28T03:04:16.437Z,1007.94
2023-04-28T03:05:16.154Z,1007.94
2023-04-28T03:06:16.158Z,1007.94
2023-04-28T03:07:16.124Z,1007.91
2023-04-28T03:08:16.127Z,1007.91
2023-04-28T03:09:16.125Z,1007.91
2023-04-28T03:10:16.119Z,1007.91
2023-04-28T03:11:16.143Z,1007.90
2023-04-28T03:12:16.115Z,1007.90
2023-04-28T03:13:16.120Z,1007.90
2023-04-28T03:14:16.421Z,1007.87
2023-04-28T03:15:16.118Z,1007.85
2023-04-28T03:16:16.163Z,1007.82
2023-04-28T03:17:16.124Z,1007.82
2023-04-28T03:18:16.094Z,1007.82
2023-04-28T03:19:16.080Z,1007.81
2023-04-28T03:20:16.109Z,1007.78
2023-04-28T03:21:16.101Z,1007.79
2023-04-28T03:22:16.068Z,1007.86
2023-04-28T03:23:16.073Z,1007.86
2023-04-28T03:24:16.228Z,1007.81
2023-04-28T03:25:16.061Z,1007.83
2023-04-28T03:26:16.066Z,1007.82
2023-04-28T03:27:16.057Z,1007.84
2023-04-28T03:28:16.064Z,1007.85
2023-04-28T03:29:16.063Z,1007.85
2023-04-28T03:30:16.049Z,1007.80
2023-04-28T03:31:16.044Z,1007.82
2023-04-28T03:32:16.136Z,1007.78
2023-04-28T03:33:16.077Z,1007.84
2023-04-28T03:34:16.337Z,1007.86
2023-04-28T03:35:16.041Z,1007.81
2023-04-28T03:36:16.024Z,1007.78
2023-04-28T03:37:16.031Z,1007.76
2023-04-28T03:38:16.015Z,1007.77
2023-04-28T03:39:16.023Z,1007.75
2023-04-28T03:40:16.020Z,1007.70
2023-04-28T03:41:16.035Z,1007.66
2023-04-28T03:42:15.999Z,1007.59
2023-04-28T03:43:16.014Z,1007.56
2023-04-28T03:44:16.105Z,1007.51
2023-04-28T03:45:15.988Z,1007.48
2023-04-28T03:46:16.059Z,1007.47
2023-04-28T03:47:16.019Z,1007.50
2023-04-28T03:48:16.049Z,1007.46
2023-04-28T03:49:16.008Z,1007.42
2023-04-28T03:50:15.978Z,1007.38
2023-04-28T03:51:15.981Z,1007.38
2023-04-28T03:52:15.972Z,1007.34
2023-04-28T03:53:15.959Z,1007.33
2023-04-28T03:54:16.118Z,1007.37
2023-04-28T03:55:15.957Z,1007.33
2023-04-28T03:56:15.946Z,1007.35
2023-04-28T03:57:15.964Z,1007.33
2023-04-28T03:58:15.960Z,1007.33
2023-04-28T03:59:15.938Z,1007.33
2023-04-28T04:00:15.937Z,1007.30
2023-04-28T04:01:15.933Z,1007.22
2023-04-28T04:02:16.009Z,1007.20
2023-04-28T04:03:16.179Z,1007.18
2023-04-28T04:04:16.418Z,1007.20
2023-04-28T04:05:16.167Z,1007.16
2023-04-28T04:06:15.939Z,1007.10
2023-04-28T04:07:15.918Z,1007.02
2023-04-28T04:08:15.911Z,1007.03
2023-04-28T04:09:15.936Z,1007.01
2023-04-28T04:10:15.915Z,1006.89
2023-04-28T04:11:15.906Z,1006.81
2023-04-28T04:12:15.901Z,1006.77
2023-04-28T04:13:15.965Z,1006.73
2023-04-28T04:14:16.268Z,1006.74
2023-04-28T04:15:15.882Z,1006.70
2023-04-28T04:16:16.085Z,1006.67
2023-04-28T04:17:15.884Z,1006.61
2023-04-28T04:18:15.873Z,1006.58
2023-04-28T04:19:15.865Z,1006.61
2023-04-28T04:20:15.880Z,1006.62
2023-04-28T04:21:15.894Z,1006.68
2023-04-28T04:22:15.856Z,1006.69
2023-04-28T04:23:15.865Z,1006.78
2023-04-28T04:24:16.202Z,1006.83
2023-04-28T04:25:15.865Z,1006.88
2023-04-28T04:26:15.866Z,1006.96
2023-04-28T04:27:15.858Z,1007.00
2023-04-28T04:28:15.865Z,1007.06
2023-04-28T04:29:15.850Z,1007.09
2023-04-28T04:30:15.857Z,1007.11
2023-04-28T04:31:15.906Z,1007.12
2023-04-28T04:32:15.840Z,1007.02
2023-04-28T04:33:15.837Z,1006.97
2023-04-28T04:34:16.112Z,1006.98
2023-04-28T04:35:15.829Z,1006.94
2023-04-28T04:36:15.804Z,1006.97
2023-04-28T04:37:15.892Z,1006.95
2023-04-28T04:38:15.799Z,1006.94
2023-04-28T04:39:15.821Z,1006.93
2023-04-28T04:40:15.826Z,1006.89
2023-04-28T04:41:15.789Z,1006.86
2023-04-28T04:42:24.970Z,1006.86
2023-04-28T04:43:15.794Z,1006.89
2023-04-28T04:44:16.050Z,1006.93
2023-04-28T04:45:15.765Z,1006.90
2023-04-28T04:46:15.785Z,1006.92
2023-04-28T04:47:15.788Z,1006.92
2023-04-28T04:48:15.753Z,1006.93
2023-04-28T04:49:15.773Z,1006.88
2023-04-28T04:50:15.755Z,1006.88
2023-04-28T04:51:15.762Z,1006.80
2023-04-28T04:52:15.752Z,1006.79
2023-04-28T04:53:16.539Z,1006.82
2023-04-28T04:54:15.922Z,1006.76
2023-04-28T04:55:15.739Z,1006.77
2023-04-28T04:56:15.742Z,1006.82
2023-04-28T04:57:15.746Z,1006.78
2023-04-28T04:58:15.736Z,1006.73
2023-04-28T04:59:15.724Z,1006.72
2023-04-28T05:00:15.714Z,1006.81
2023-04-28T05:01:15.732Z,1006.82
2023-04-28T05:02:15.869Z,1006.90
2023-04-28T05:03:15.848Z,1006.90
2023-04-28T05:04:16.251Z,1006.94
2023-04-28T05:05:21.074Z,1006.95
2023-04-28T05:06:15.716Z,1006.95
2023-04-28T05:07:18.329Z,1006.96
2023-04-28T05:08:15.692Z,1006.92
2023-04-28T05:09:15.737Z,1006.98
2023-04-28T05:10:15.692Z,1006.95
2023-04-28T05:11:15.704Z,1006.97
2023-04-28T05:12:15.689Z,1007.05
2023-04-28T05:13:15.712Z,1007.02
2023-04-28T05:14:16.032Z,1006.99
2023-04-28T05:15:15.680Z,1006.97
2023-04-28T05:16:15.678Z,1006.94
2023-04-28T05:17:15.696Z,1006.88
2023-04-28T05:18:15.710Z,1006.86
2023-04-28T05:19:15.691Z,1006.92
2023-04-28T05:20:15.681Z,1006.92
2023-04-28T05:21:15.699Z,1006.91
2023-04-28T05:22:15.664Z,1006.87
2023-04-28T05:23:15.662Z,1006.85
2023-04-28T05:24:16.026Z,1006.87
2023-04-28T05:25:15.674Z,1006.83
2023-04-28T05:26:15.644Z,1006.82
2023-04-28T05:27:15.652Z,1006.73
2023-04-28T05:28:15.637Z,1006.71
2023-04-28T05:29:15.632Z,1006.78
2023-04-28T05:30:15.656Z,1006.74
2023-04-28T05:31:15.654Z,1006.77
2023-04-28T05:32:15.666Z,1006.77
2023-04-28T05:33:15.632Z,1006.79
2023-04-28T05:34:15.973Z,1006.77
2023-04-28T05:35:15.657Z,1006.78
2023-04-28T05:36:15.632Z,1006.83
2023-04-28T05:37:15.625Z,1006.83
2023-04-28T05:38:15.645Z,1006.85
2023-04-28T05:39:15.615Z,1006.84
2023-04-28T05:40:15.620Z,1006.84
2023-04-28T05:41:15.639Z,1006.83
2023-04-28T05:42:15.615Z,1006.84
2023-04-28T05:43:15.606Z,1006.78
2023-04-28T05:44:15.815Z,1006.80
2023-04-28T05:45:15.612Z,1006.76
2023-04-28T05:46:28.936Z,1006.76
2023-04-28T05:47:15.625Z,1006.76
2023-04-28T05:48:15.592Z,1006.75
2023-04-28T05:49:15.592Z,1006.78
2023-04-28T05:50:15.585Z,1006.72
2023-04-28T05:51:15.592Z,1006.72
2023-04-28T05:52:15.577Z,1006.75
2023-04-28T05:53:15.586Z,1006.76
2023-04-28T05:54:15.738Z,1006.76
2023-04-28T05:55:15.578Z,1006.79
2023-04-28T05:56:15.572Z,1006.72
2023-04-28T05:57:15.585Z,1006.72
2023-04-28T05:58:15.558Z,1006.67
2023-04-28T05:59:15.926Z,1006.66
2023-04-28T06:00:15.544Z,1006.63
2023-04-28T06:01:15.564Z,1006.64
2023-04-28T06:02:15.554Z,1006.60
2023-04-28T06:03:15.694Z,1006.64
2023-04-28T06:04:15.999Z,1006.64
2023-04-28T06:05:15.719Z,1006.67
2023-04-28T06:06:15.565Z,1006.67
2023-04-28T06:07:15.554Z,1006.65
2023-04-28T06:08:15.545Z,1006.63
2023-04-28T06:09:15.735Z,1006.60
2023-04-28T06:10:15.542Z,1006.60
2023-04-28T06:11:15.554Z,1006.60
2023-04-28T06:12:15.527Z,1006.63
2023-04-28T06:13:15.534Z,1006.66
2023-04-28T06:14:15.798Z,1006.62
2023-04-28T06:15:15.524Z,1006.63
2023-04-28T06:16:15.571Z,1006.63
2023-04-28T06:17:15.524Z,1006.63
2023-04-28T06:18:15.502Z,1006.67
2023-04-28T06:19:15.523Z,1006.69
2023-04-28T06:20:15.533Z,1006.65
2023-04-28T06:21:15.507Z,1006.67
2023-04-28T06:22:15.497Z,1006.66
2023-04-28T06:23:15.499Z,1006.69
2023-04-28T06:24:15.650Z,1006.65
2023-04-28T06:25:15.498Z,1006.67
2023-04-28T06:26:17.972Z,1006.64
2023-04-28T06:27:15.492Z,1006.64
2023-04-28T06:28:15.488Z,1006.67
2023-04-28T06:29:15.498Z,1006.65
2023-04-28T06:30:15.480Z,1006.64
2023-04-28T06:31:15.502Z,1006.64
2023-04-28T06:32:15.456Z,1006.64
2023-04-28T06:33:15.500Z,1006.64
2023-04-28T06:34:15.698Z,1006.65
2023-04-28T06:35:15.466Z,1006.62
2023-04-28T06:36:15.475Z,1006.65
2023-04-28T06:37:15.465Z,1006.68
2023-04-28T06:38:15.460Z,1006.68
2023-04-28T06:39:15.480Z,1006.70
2023-04-28T06:40:15.460Z,1006.62
2023-04-28T06:41:15.461Z,1006.63
2023-04-28T06:42:15.449Z,1006.62
2023-04-28T06:43:15.445Z,1006.65
2023-04-28T06:44:15.719Z,1006.63
2023-04-28T06:45:15.514Z,1006.70
2023-04-28T06:46:15.459Z,1006.70
2023-04-28T06:47:15.426Z,1006.72
2023-04-28T06:48:15.444Z,1006.71
2023-04-28T06:49:15.430Z,1006.70
2023-04-28T06:50:15.430Z,1006.69
2023-04-28T06:51:15.442Z,1006.68
2023-04-28T06:52:15.425Z,1006.65
2023-04-28T06:53:15.430Z,1006.66
2023-04-28T06:54:15.525Z,1006.64
2023-04-28T06:55:15.392Z,1006.64
2023-04-28T06:56:15.409Z,1006.61
2023-04-28T06:57:15.406Z,1006.61
2023-04-28T06:58:15.411Z,1006.63
2023-04-28T06:59:15.557Z,1006.58
2023-04-28T07:00:15.412Z,1006.62
2023-04-28T07:01:15.471Z,1006.62
2023-04-28T07:02:15.404Z,1006.62
2023-04-28T07:03:15.453Z,1006.65
2023-04-28T07:04:15.579Z,1006.64
2023-04-28T07:05:16.555Z,1006.66
2023-04-28T07:06:15.368Z,1006.71
2023-04-28T07:07:15.382Z,1006.74
2023-04-28T07:08:15.388Z,1006.78
2023-04-28T07:09:15.357Z,1006.78
2023-04-28T07:10:15.357Z,1006.80
2023-04-28T07:11:15.385Z,1006.78
2023-04-28T07:12:15.369Z,1006.79
2023-04-28T07:13:15.351Z,1006.77
2023-04-28T07:14:15.563Z,1006.78
2023-04-28T07:15:15.350Z,1006.75
2023-04-28T07:16:15.402Z,1006.76
2023-04-28T07:17:15.357Z,1006.74
2023-04-28T07:18:15.379Z,1006.75
2023-04-28T07:19:15.350Z,1006.79
2023-04-28T07:20:15.349Z,1006.73
2023-04-28T07:21:15.334Z,1006.75
2023-04-28T07:22:15.330Z,1006.75
2023-04-28T07:23:15.320Z,1006.74
2023-04-28T07:24:15.494Z,1006.77
2023-04-28T07:25:15.311Z,1006.80
2023-04-28T07:26:15.520Z,1006.79
2023-04-28T07:27:15.310Z,1006.78
2023-04-28T07:28:15.323Z,1006.79
2023-04-28T07:29:15.322Z,1006.76
2023-04-28T07:30:26.721Z,1006.80
2023-04-28T07:31:15.315Z,1006.77
2023-04-28T07:32:15.540Z,1006.78
2023-04-28T07:33:15.396Z,1006.82
2023-04-28T07:34:15.566Z,1006.85
2023-04-28T07:35:15.310Z,1006.81
2023-04-28T07:36:15.300Z,1006.81
2023-04-28T07:37:15.283Z,1006.80
2023-04-28T07:38:15.294Z,1006.78
2023-04-28T07:39:15.285Z,1006.81
2023-04-28T07:40:15.296Z,1006.78
2023-04-28T07:41:15.285Z,1006.76
2023-04-28T07:42:15.270Z,1006.73
2023-04-28T07:43:15.294Z,1006.77
2023-04-28T07:44:15.517Z,1006.79
2023-04-28T07:45:15.261Z,1006.80
2023-04-28T07:46:15.341Z,1006.76
2023-04-28T07:47:15.270Z,1006.75
2023-04-28T07:48:15.276Z,1006.75
2023-04-28T07:49:15.474Z,1006.76
2023-04-28T07:50:15.258Z,1006.77
2023-04-28T07:51:15.255Z,1006.74
2023-04-28T07:52:15.243Z,1006.77
2023-04-28T07:53:15.245Z,1006.73
2023-04-28T07:54:15.699Z,1006.71
2023-04-28T07:55:15.220Z,1006.68
2023-04-28T07:56:15.260Z,1006.66
2023-04-28T07:57:15.228Z,1006.65
2023-04-28T07:58:15.240Z,1006.67
2023-04-28T07:59:15.224Z,1006.67
2023-04-28T08:00:15.216Z,1006.71
2023-04-28T08:01:15.204Z,1006.70
2023-04-28T08:02:15.268Z,1006.66
2023-04-28T08:03:15.375Z,1006.63
2023-04-28T08:04:15.538Z,1006.62
2023-04-28T08:05:15.515Z,1006.70
2023-04-28T08:06:15.189Z,1006.70
2023-04-28T08:07:15.200Z,1006.66
2023-04-28T08:08:15.220Z,1006.64
2023-04-28T08:09:15.190Z,1006.63
2023-04-28T08:10:15.200Z,1006.63
2023-04-28T08:11:15.194Z,1006.63
2023-04-28T08:12:15.206Z,1006.67
2023-04-28T08:13:15.189Z,1006.62
2023-04-28T08:14:15.336Z,1006.58
2023-04-28T08:15:16.602Z,1006.60
2023-04-28T08:16:15.181Z,1006.61
2023-04-28T08:17:15.155Z,1006.63
2023-04-28T08:18:15.199Z,1006.63
2023-04-28T08:19:15.155Z,1006.69
2023-04-28T08:20:15.164Z,1006.71
2023-04-28T08:21:15.156Z,1006.69
2023-04-28T08:22:15.148Z,1006.67
2023-04-28T08:23:15.143Z,1006.63
2023-04-28T08:24:15.366Z,1006.63
2023-04-28T08:25:15.138Z,1006.65
2023-04-28T08:26:15.147Z,1006.63
2023-04-28T08:27:15.128Z,1006.68
2023-04-28T08:28:15.123Z,1006.65
2023-04-28T08:29:15.130Z,1006.64
2023-04-28T08:30:15.147Z,1006.58
2023-04-28T08:31:15.146Z,1006.55
2023-04-28T08:32:15.125Z,1006.52
2023-04-28T08:33:15.147Z,1006.55
2023-04-28T08:34:16.655Z,1006.57
2023-04-28T08:35:15.091Z,1006.54
2023-04-28T08:36:15.182Z,1006.56
2023-04-28T08:37:15.112Z,1006.59
2023-04-28T08:38:15.109Z,1006.56
2023-04-28T08:39:15.105Z,1006.60
2023-04-28T08:40:15.104Z,1006.61
2023-04-28T08:41:15.089Z,1006.62
2023-04-28T08:42:15.101Z,1006.66
2023-04-28T08:43:15.142Z,1006.62
2023-04-28T08:44:15.311Z,1006.65
2023-04-28T08:45:15.102Z,1006.70
2023-04-28T08:46:15.146Z,1006.75
2023-04-28T08:47:15.122Z,1006.78
2023-04-28T08:48:15.077Z,1006.77
2023-04-28T08:49:15.057Z,1006.83
2023-04-28T08:50:15.099Z,1006.79
2023-04-28T08:51:15.059Z,1006.79
2023-04-28T08:52:15.067Z,1006.79
2023-04-28T08:53:15.080Z,1006.78
2023-04-28T08:54:25.273Z,1006.74
2023-04-28T08:55:15.036Z,1006.70
2023-04-28T08:56:15.095Z,1006.75
2023-04-28T08:57:15.058Z,1006.72
2023-04-28T08:58:15.056Z,1006.78
2023-04-28T08:59:15.093Z,1006.76
2023-04-28T09:00:15.060Z,1006.80
2023-04-28T09:01:15.032Z,1006.74
2023-04-28T09:02:15.092Z,1006.78
2023-04-28T09:03:15.168Z,1006.80
2023-04-28T09:04:15.193Z,1006.79
2023-04-28T09:05:15.245Z,1006.77
2023-04-28T09:06:15.025Z,1006.77
2023-04-28T09:07:15.060Z,1006.77
2023-04-28T09:08:15.032Z,1006.82
2023-04-28T09:09:15.127Z,1006.79
2023-04-28T09:10:15.019Z,1006.83
2023-04-28T09:11:15.009Z,1006.80
2023-04-28T09:12:15.015Z,1006.77
2023-04-28T09:13:14.981Z,1006.80
2023-04-28T09:14:15.327Z,1006.78
2023-04-28T09:15:14.998Z,1006.73
2023-04-28T09:16:15.032Z,1006.77
2023-04-28T09:17:14.991Z,1006.74
2023-04-28T09:18:15.058Z,1006.74
2023-04-28T09:19:14.964Z,1006.75
2023-04-28T09:20:14.980Z,1006.73
2023-04-28T09:21:14.980Z,1006.74
2023-04-28T09:22:26.233Z,1006.75
2023-04-28T09:23:14.977Z,1006.76
2023-04-28T09:24:15.151Z,1006.74
2023-04-28T09:25:15.068Z,1006.72
2023-04-28T09:26:14.974Z,1006.71
2023-04-28T09:27:14.956Z,1006.72
2023-04-28T09:28:14.957Z,1006.75
2023-04-28T09:29:14.962Z,1006.73
2023-04-28T09:30:14.971Z,1006.74
2023-04-28T09:31:14.939Z,1006.72
2023-04-28T09:32:15.153Z,1006.77
2023-04-28T09:33:14.993Z,1006.72
2023-04-28T09:34:15.063Z,1006.73
2023-04-28T09:35:14.957Z,1006.72
2023-04-28T09:36:14.943Z,1006.72
2023-04-28T09:37:14.956Z,1006.66
2023-04-28T09:38:14.944Z,1006.67
2023-04-28T09:39:14.923Z,1006.62
2023-04-28T09:40:14.935Z,1006.61
2023-04-28T09:41:14.955Z,1006.64
2023-04-28T09:42:14.917Z,1006.63
2023-04-28T09:43:21.524Z,1006.63
2023-04-28T09:44:15.126Z,1006.61
2023-04-28T09:45:14.928Z,1006.59
2023-04-28T09:46:14.998Z,1006.59
2023-04-28T09:47:14.899Z,1006.66
2023-04-28T09:48:14.976Z,1006.66
2023-04-28T09:49:14.896Z,1006.66
2023-04-28T09:50:15.162Z,1006.66
2023-04-28T09:51:14.893Z,1006.64
2023-04-28T09:52:14.910Z,1006.67
2023-04-28T09:53:14.909Z,1006.70
2023-04-28T09:54:14.911Z,1006.67
2023-04-28T09:55:14.897Z,1006.74
2023-04-28T09:56:14.871Z,1006.74
2023-04-28T09:57:14.892Z,1006.72
2023-04-28T09:58:14.894Z,1006.68
2023-04-28T09:59:14.896Z,1006.69
2023-04-28T10:00:15.135Z,1006.64
2023-04-28T10:01:14.889Z,1006.69
2023-04-28T10:02:40.857Z,1006.65
2023-04-28T10:03:14.968Z,1006.69
2023-04-28T10:04:15.021Z,1006.66
2023-04-28T10:05:15.022Z,1006.66
2023-04-28T10:06:14.873Z,1006.66
2023-04-28T10:07:14.850Z,1006.67
2023-04-28T10:08:14.852Z,1006.68
2023-04-28T10:09:14.842Z,1006.70
2023-04-28T10:10:15.130Z,1006.68
2023-04-28T10:11:14.823Z,1006.67
2023-04-28T10:12:14.837Z,1006.70
2023-04-28T10:13:14.858Z,1006.68
2023-04-28T10:14:14.833Z,1006.70
2023-04-28T10:15:14.831Z,1006.67
2023-04-28T10:16:14.880Z,1006.69
2023-04-28T10:17:14.802Z,1006.69
2023-04-28T10:18:14.850Z,1006.68
2023-04-28T10:19:14.824Z,1006.67
2023-04-28T10:20:14.849Z,1006.69
2023-04-28T10:21:14.797Z,1006.68
2023-04-28T10:22:14.816Z,1006.67
2023-04-28T10:23:14.808Z,1006.67
2023-04-28T10:24:14.799Z,1006.62
2023-04-28T10:25:14.800Z,1006.63
2023-04-28T10:26:14.798Z,1006.60
2023-04-28T10:27:14.791Z,1006.57
2023-04-28T10:28:14.815Z,1006.55
2023-04-28T10:29:14.835Z,1006.55
2023-04-28T10:30:26.517Z,1006.54
2023-04-28T10:31:14.847Z,1006.52
2023-04-28T10:32:14.774Z,1006.56
2023-04-28T10:33:14.988Z,1006.53
2023-04-28T10:34:14.768Z,1006.51
2023-04-28T10:35:14.782Z,1006.50
2023-04-28T10:36:16.222Z,1006.55
2023-04-28T10:37:14.765Z,1006.54
2023-04-28T10:38:14.782Z,1006.51
2023-04-28T10:39:14.790Z,1006.59
2023-04-28T10:40:14.805Z,1006.62
2023-04-28T10:41:14.743Z,1006.59
2023-04-28T10:42:14.769Z,1006.57
2023-04-28T10:43:14.773Z,1006.58
2023-04-28T10:44:14.739Z,1006.57
2023-04-28T10:45:14.772Z,1006.55
2023-04-28T10:46:14.830Z,1006.53
2023-04-28T10:47:14.738Z,1006.57
2023-04-28T10:48:14.743Z,1006.53
2023-04-28T10:49:14.748Z,1006.52
2023-04-28T10:50:14.735Z,1006.49
2023-04-28T10:51:14.739Z,1006.52
2023-04-28T10:52:14.711Z,1006.47
2023-04-28T10:53:14.754Z,1006.48
2023-04-28T10:54:14.726Z,1006.48
2023-04-28T10:55:22.051Z,1006.51
2023-04-28T10:56:14.723Z,1006.49
2023-04-28T10:57:14.712Z,1006.49
2023-04-28T10:58:14.740Z,1006.46
2023-04-28T10:59:14.742Z,1006.45
2023-04-28T11:00:14.725Z,1006.49
2023-04-28T11:01:14.776Z,1006.47
2023-04-28T11:02:14.748Z,1006.46
2023-04-28T11:03:14.798Z,1006.47
2023-04-28T11:04:14.803Z,1006.46
2023-04-28T11:05:14.913Z,1006.43
2023-04-28T11:06:14.683Z,1006.43
2023-04-28T11:07:14.695Z,1006.44
2023-04-28T11:08:14.665Z,1006.38
2023-04-28T11:09:14.703Z,1006.39
2023-04-28T11:10:14.678Z,1006.42
2023-04-28T11:11:14.677Z,1006.39
2023-04-28T11:12:14.669Z,1006.41
2023-04-28T11:13:14.666Z,1006.39
2023-04-28T11:14:14.666Z,1006.40
2023-04-28T11:15:14.652Z,1006.33
2023-04-28T11:16:14.704Z,1006.35
2023-04-28T11:17:14.668Z,1006.33
2023-04-28T11:18:14.655Z,1006.28
2023-04-28T11:19:14.666Z,1006.29
2023-04-28T11:20:14.649Z,1006.26
2023-04-28T11:21:14.640Z,1006.29
2023-04-28T11:22:14.618Z,1006.26
2023-04-28T11:23:14.669Z,1006.25
2023-04-28T11:24:14.608Z,1006.24
2023-04-28T11:25:14.618Z,1006.21
2023-04-28T11:26:14.616Z,1006.19
2023-04-28T11:27:14.614Z,1006.21
2023-04-28T11:28:14.611Z,1006.17
2023-04-28T11:29:14.617Z,1006.14
2023-04-28T11:30:14.608Z,1006.12
2023-04-28T11:31:14.634Z,1006.13
2023-04-28T11:32:14.681Z,1006.12
2023-04-28T11:33:14.691Z,1006.13
2023-04-28T11:34:14.624Z,1006.14
2023-04-28T11:35:14.625Z,1006.10
2023-04-28T11:36:14.583Z,1006.15
2023-04-28T11:37:14.902Z,1006.16
2023-04-28T11:38:14.596Z,1006.16
2023-04-28T11:39:14.589Z,1006.15
2023-04-28T11:40:14.580Z,1006.15
2023-04-28T11:41:14.569Z,1006.16
2023-04-28T11:42:14.575Z,1006.14
2023-04-28T11:43:14.587Z,1006.13
2023-04-28T11:44:14.585Z,1006.11
2023-04-28T11:45:14.581Z,1006.10
2023-04-28T11:46:14.570Z,1006.09
2023-04-28T11:47:14.575Z,1006.12
2023-04-28T11:48:14.555Z,1006.11
2023-04-28T11:49:14.652Z,1006.09
2023-04-28T11:50:14.556Z,1006.12
2023-04-28T11:51:14.540Z,1006.13
2023-04-28T11:52:14.559Z,1006.10
2023-04-28T11:53:14.566Z,1006.15
2023-04-28T11:54:14.537Z,1006.13
2023-04-28T11:55:14.533Z,1006.10
2023-04-28T11:56:14.569Z,1006.13
2023-04-28T11:57:14.633Z,1006.12
2023-04-28T11:58:14.522Z,1006.13
2023-04-28T11:59:14.548Z,1006.14
2023-04-28T12:00:14.597Z,1006.13
2023-04-28T12:01:14.548Z,1006.10
2023-04-28T12:02:14.567Z,1006.12
2023-04-28T12:03:14.609Z,1006.10
2023-04-28T12:04:14.743Z,1006.10
2023-04-28T12:05:14.544Z,1006.06